createdAt,value
2023-03-04T00:01:29.397Z,33.92
2023-03-04T00:03:57.204Z,33.75
2023-03-04T00:06:24.944Z,33.86
2023-03-04T00:08:52.746Z,33.78
2023-03-04T00:11:20.417Z,33.88
2023-03-04T00:13:48.156Z,33.85
2023-03-04T00:16:17.285Z,33.87
2023-03-04T00:18:45.396Z,33.83
2023-03-04T00:21:13.072Z,33.79
2023-03-04T00:23:41.421Z,33.75
2023-03-04T00:26:09.608Z,33.76
2023-03-04T00:28:37.213Z,33.73
2023-03-04T00:31:04.954Z,33.76
2023-03-04T00:33:34.069Z,33.66
2023-03-04T00:36:01.985Z,33.79
2023-03-04T00:38:29.694Z,33.78
2023-03-04T00:40:57.320Z,33.67
2023-03-04T00:43:25.050Z,33.77
2023-03-04T00:45:52.849Z,33.85
2023-03-04T00:48:20.508Z,33.81
2023-03-04T00:50:51.723Z,33.83
2023-03-04T00:53:19.415Z,33.88
2023-03-04T00:55:47.082Z,33.80
2023-03-04T00:58:16.086Z,33.79
2023-03-04T01:00:43.806Z,33.80
2023-03-04T01:03:11.561Z,33.99
2023-03-04T01:05:39.255Z,33.79
2023-03-04T01:08:08.365Z,33.77
2023-03-04T01:10:36.114Z,33.79
2023-03-04T01:13:03.827Z,33.69
2023-03-04T01:15:31.558Z,33.80
2023-03-04T01:17:59.383Z,33.83
2023-03-04T01:20:27.124Z,33.85
2023-03-04T01:22:54.752Z,33.81
2023-03-04T01:25:23.879Z,33.85
2023-03-04T01:27:51.621Z,33.92
2023-03-04T01:30:19.558Z,33.86
2023-03-04T01:32:47.241Z,33.87
2023-03-04T01:35:14.994Z,33.95
2023-03-04T01:37:42.734Z,33.85
2023-03-04T01:40:10.761Z,33.77
2023-03-04T01:42:39.773Z,33.82
2023-03-04T01:45:08.137Z,33.96
2023-03-04T01:47:35.862Z,33.78
2023-03-04T01:50:04.771Z,33.79
2023-03-04T01:52:32.604Z,33.84
2023-03-04T01:55:00.282Z,33.87
2023-03-04T01:57:27.939Z,33.80
2023-03-04T02:00:14.520Z,33.82
2023-03-04T02:02:43.590Z,33.83
2023-03-04T02:05:11.301Z,33.81
2023-03-04T02:07:39.108Z,33.85
2023-03-04T02:10:07.283Z,33.82
2023-03-04T02:12:35.018Z,33.86
2023-03-04T02:15:02.730Z,33.98
2023-03-04T02:17:30.605Z,33.87
2023-03-04T02:20:01.016Z,33.85
2023-03-04T02:22:28.720Z,33.95
2023-03-04T02:24:58.552Z,33.96
2023-03-04T02:27:27.736Z,33.89
2023-03-04T02:29:55.453Z,33.90
2023-03-04T02:32:23.231Z,33.78
2023-03-04T02:34:51.150Z,33.98
2023-03-04T02:37:18.990Z,33.82
2023-03-04T02:39:46.897Z,33.86
2023-03-04T02:42:45.534Z,33.88
2023-03-04T02:45:31.790Z,33.88
2023-03-04T02:48:00.885Z,33.83
2023-03-04T02:50:28.732Z,33.80
2023-03-04T02:52:56.438Z,33.92
2023-03-04T02:55:24.180Z,33.71
2023-03-04T02:57:51.844Z,33.86
2023-03-04T03:00:19.640Z,33.93
2023-03-04T03:02:47.455Z,33.87
2023-03-04T03:05:16.648Z,33.88
2023-03-04T03:07:44.299Z,33.85
2023-03-04T03:10:12.460Z,33.98
2023-03-04T03:12:40.109Z,33.85
2023-03-04T03:15:08.386Z,33.85
2023-03-04T03:17:35.988Z,33.80
2023-03-04T03:20:03.659Z,33.98
2023-03-04T03:22:32.668Z,33.92
2023-03-04T03:25:00.598Z,33.87
2023-03-04T03:27:28.304Z,33.97
2023-03-04T03:29:55.969Z,33.91
2023-03-04T03:32:23.738Z,33.90
2023-03-04T03:34:51.493Z,34.00
2023-03-04T03:37:19.270Z,33.91
2023-03-04T03:39:48.332Z,33.94
2023-03-04T03:42:16.066Z,33.96
2023-03-04T03:44:43.727Z,33.96
2023-03-04T03:47:11.439Z,33.85
2023-03-04T03:49:39.106Z,34.02
2023-03-04T03:52:08.411Z,34.08
2023-03-04T03:54:36.172Z,33.86
2023-03-04T03:57:05.220Z,34.02
2023-03-04T03:59:32.877Z,33.86
2023-03-04T04:02:00.589Z,33.89
2023-03-04T04:04:28.351Z,33.88
2023-03-04T04:06:56.073Z,33.94
2023-03-04T04:09:23.724Z,33.97
2023-03-04T04:11:51.365Z,33.95
2023-03-04T04:14:20.366Z,33.91
2023-03-04T04:16:48.075Z,33.85
2023-03-04T04:19:17.636Z,33.97
2023-03-04T04:21:45.331Z,33.98
2023-03-04T04:24:13.119Z,33.91
2023-03-04T04:26:59.146Z,34.03
2023-03-04T04:29:28.157Z,33.90
2023-03-04T04:31:55.851Z,33.92
2023-03-04T04:34:23.547Z,34.02
2023-03-04T04:36:51.185Z,33.94
2023-03-04T04:39:18.824Z,33.97
2023-03-04T04:41:46.670Z,33.92
2023-03-04T04:44:14.392Z,34.01
2023-03-04T04:46:43.438Z,34.06
2023-03-04T04:49:11.294Z,33.93
2023-03-04T04:51:39.291Z,33.90
2023-03-04T04:54:07.048Z,34.03
2023-03-04T04:56:34.789Z,33.95
2023-03-04T04:59:02.894Z,33.99
2023-03-04T05:01:30.680Z,34.00
2023-03-04T05:03:59.805Z,33.99
2023-03-04T05:06:27.553Z,33.88
2023-03-04T05:08:55.236Z,34.02
2023-03-04T05:11:22.963Z,33.90
2023-03-04T05:13:50.729Z,33.84
2023-03-04T05:16:18.504Z,33.85
2023-03-04T05:18:46.201Z,34.09
2023-03-04T05:21:15.290Z,33.82
2023-03-04T05:23:43.280Z,33.92
2023-03-04T05:26:11.294Z,33.92
2023-03-04T05:28:38.955Z,33.94
2023-03-04T05:31:06.710Z,33.93
2023-03-04T05:33:35.053Z,33.94
2023-03-04T05:36:02.803Z,34.00
2023-03-04T05:38:31.800Z,33.97
2023-03-04T05:41:00.493Z,33.97
2023-03-04T05:43:28.212Z,33.99
2023-03-04T05:45:55.966Z,34.00
2023-03-04T05:48:23.693Z,33.88
2023-03-04T05:50:54.258Z,34.05
2023-03-04T05:53:21.965Z,33.93
2023-03-04T05:55:51.092Z,33.93
2023-03-04T05:58:18.764Z,33.87
2023-03-04T06:00:46.407Z,33.90
2023-03-04T06:03:15.445Z,33.94
2023-03-04T06:05:43.175Z,33.89
2023-03-04T06:08:10.878Z,33.93
2023-03-04T06:10:38.730Z,33.84
2023-03-04T06:13:07.775Z,33.89
2023-03-04T06:15:35.474Z,33.80
2023-03-04T06:18:03.174Z,33.78
2023-03-04T06:20:30.850Z,33.73
2023-03-04T06:22:58.559Z,33.90
2023-03-04T06:25:26.228Z,33.83
2023-03-04T06:28:37.811Z,33.79
2023-03-04T06:31:07.032Z,33.83
2023-03-04T06:33:50.209Z,33.95
2023-03-04T06:36:17.881Z,33.85
2023-03-04T06:38:45.773Z,33.92
2023-03-04T06:41:13.679Z,33.88
2023-03-04T06:43:41.302Z,33.81
2023-03-04T06:46:10.294Z,33.76
2023-03-04T06:48:37.990Z,33.71
2023-03-04T06:51:09.003Z,33.90
2023-03-04T06:53:36.794Z,33.78
2023-03-04T06:56:04.497Z,33.86
2023-03-04T06:58:50.336Z,33.85
2023-03-04T07:01:20.021Z,33.76
2023-03-04T07:03:47.809Z,33.86
2023-03-04T07:06:15.868Z,33.93
2023-03-04T07:08:43.554Z,33.86
2023-03-04T07:11:11.351Z,33.75
2023-03-04T07:13:39.335Z,33.86
2023-03-04T07:16:07.394Z,33.63
2023-03-04T07:18:36.461Z,33.72
2023-03-04T07:21:04.220Z,33.72
2023-03-04T07:23:32.015Z,33.58
2023-03-04T07:25:59.822Z,33.81
2023-03-04T07:28:27.589Z,33.64
2023-03-04T07:30:55.204Z,33.71
2023-03-04T07:33:22.891Z,33.64
2023-03-04T07:35:51.919Z,33.70
2023-03-04T07:38:19.645Z,33.59
2023-03-04T07:40:47.619Z,33.81
2023-03-04T07:43:15.284Z,33.77
2023-03-04T07:45:42.924Z,33.76
2023-03-04T07:48:10.657Z,33.68
2023-03-04T07:50:38.732Z,33.65
2023-03-04T07:53:07.816Z,33.81
2023-03-04T07:55:35.464Z,33.93
2023-03-04T07:58:03.532Z,33.79
2023-03-04T08:00:31.198Z,33.95
2023-03-04T08:02:59.086Z,33.74
2023-03-04T08:05:27.354Z,33.73
2023-03-04T08:07:58.472Z,33.77
2023-03-04T08:10:27.543Z,33.74
2023-03-04T08:12:55.312Z,33.75
2023-03-04T08:15:23.603Z,33.66
2023-03-04T08:17:51.199Z,33.84
2023-03-04T08:20:19.682Z,33.67
2023-03-04T08:22:47.343Z,33.73
2023-03-04T08:25:15.140Z,33.72
2023-03-04T08:28:23.503Z,33.85
2023-03-04T08:30:55.100Z,33.65
2023-03-04T08:33:23.570Z,33.80
2023-03-04T08:35:51.239Z,33.73
2023-03-04T08:38:18.876Z,33.68
2023-03-04T08:40:47.225Z,33.62
2023-03-04T08:43:14.962Z,33.74
2023-03-04T08:45:43.319Z,33.62
2023-03-04T08:48:12.372Z,33.71
2023-03-04T08:50:40.614Z,33.80
2023-03-04T08:53:08.271Z,33.70
2023-03-04T08:55:36.632Z,33.64
2023-03-04T08:58:04.284Z,33.66
2023-03-04T09:00:32.665Z,33.74
2023-03-04T09:03:00.313Z,33.84
2023-03-04T09:05:32.597Z,33.72
2023-03-04T09:08:00.261Z,33.65
2023-03-04T09:10:27.855Z,33.77
2023-03-04T09:12:56.108Z,33.74
2023-03-04T09:15:23.849Z,33.79
2023-03-04T09:17:52.154Z,33.84
2023-03-04T09:20:21.170Z,33.68
2023-03-04T09:22:51.032Z,33.85
2023-03-04T09:25:18.761Z,33.71
2023-03-04T09:27:46.405Z,33.67
2023-03-04T09:30:15.781Z,33.78
2023-03-04T09:32:43.389Z,33.72
2023-03-04T09:35:12.681Z,33.71
2023-03-04T09:37:41.638Z,33.64
2023-03-04T09:40:13.535Z,33.72
2023-03-04T09:42:45.753Z,33.63
2023-03-04T09:45:16.601Z,33.51
2023-03-04T09:47:44.310Z,33.64
2023-03-04T09:50:13.332Z,33.58
2023-03-04T09:52:44.764Z,33.61
2023-03-04T09:55:18.635Z,33.61
2023-03-04T09:57:48.937Z,33.58
2023-03-04T10:00:20.708Z,33.40
2023-03-04T10:02:52.325Z,33.55
2023-03-04T10:05:21.932Z,33.55
2023-03-04T10:07:50.106Z,33.61
2023-03-04T10:10:22.833Z,33.72
2023-03-04T10:12:50.659Z,33.49
2023-03-04T10:15:20.787Z,33.46
2023-03-04T10:17:49.231Z,33.54
2023-03-04T10:20:18.686Z,33.64
2023-03-04T10:22:46.672Z,33.56
2023-03-04T10:25:20.822Z,33.53
2023-03-04T10:27:50.754Z,33.51
2023-03-04T10:30:21.844Z,33.55
2023-03-04T10:32:49.578Z,33.30
2023-03-04T10:35:17.577Z,33.52
2023-03-04T10:37:47.713Z,33.56
2023-03-04T10:40:23.947Z,33.42
2023-03-04T10:42:52.318Z,33.17
2023-03-04T10:45:23.561Z,33.17
2023-03-04T10:47:55.156Z,33.29
2023-03-04T10:50:23.537Z,33.14
2023-03-04T10:52:53.881Z,33.20
2023-03-04T10:55:23.274Z,33.30
2023-03-04T10:57:51.789Z,33.22
2023-03-04T11:00:27.006Z,33.11
2023-03-04T11:02:55.620Z,33.12
2023-03-04T11:05:26.704Z,33.25
2023-03-04T11:07:57.292Z,33.05
2023-03-04T11:10:27.249Z,33.24
2023-03-04T11:12:58.674Z,33.21
2023-03-04T11:15:28.288Z,33.29
2023-03-04T11:17:56.896Z,33.16
2023-03-04T11:20:27.571Z,33.06
2023-03-04T11:22:56.026Z,33.19
2023-03-04T11:25:26.874Z,33.15
2023-03-04T11:27:55.726Z,33.19
2023-03-04T11:30:27.211Z,33.10
2023-03-04T11:32:55.968Z,33.09
2023-03-04T11:35:25.143Z,33.14
2023-03-04T11:37:55.034Z,33.23
2023-03-04T11:40:25.038Z,33.06
2023-03-04T11:42:54.238Z,33.17
2023-03-04T11:45:29.139Z,33.25
2023-03-04T11:48:00.246Z,33.12
2023-03-04T11:50:30.429Z,33.16
2023-03-04T11:53:16.951Z,32.97
2023-03-04T11:55:46.356Z,32.91
2023-03-04T11:58:28.928Z,32.95
2023-03-04T12:00:59.629Z,33.00
2023-03-04T12:03:32.597Z,32.89
2023-03-04T12:06:02.478Z,33.08
2023-03-04T12:08:36.262Z,32.99
2023-03-04T12:11:06.667Z,32.80
2023-03-04T12:13:41.220Z,32.90
2023-03-04T12:16:17.206Z,32.79
2023-03-04T12:18:48.878Z,32.76
2023-03-04T12:21:19.336Z,32.97
2023-03-04T12:23:54.924Z,32.94
2023-03-04T12:26:26.601Z,32.88
2023-03-04T12:28:56.085Z,32.87
2023-03-04T12:31:32.420Z,32.93
2023-03-04T12:34:04.467Z,33.02
2023-03-04T12:36:34.800Z,32.84
2023-03-04T12:39:04.869Z,32.82
2023-03-04T12:41:37.872Z,32.87
2023-03-04T12:44:08.828Z,32.89
2023-03-04T12:46:41.327Z,32.91
2023-03-04T12:49:23.962Z,32.83
2023-03-04T12:51:53.752Z,32.72
2023-03-04T12:54:23.982Z,32.65
2023-03-04T12:56:52.542Z,32.83
2023-03-04T12:59:20.855Z,32.64
2023-03-04T13:01:51.666Z,32.52
2023-03-04T13:04:23.521Z,32.70
2023-03-04T13:06:54.652Z,32.58
2023-03-04T13:09:24.807Z,32.68
2023-03-04T13:11:53.458Z,32.64
2023-03-04T13:14:28.891Z,32.60
2023-03-04T13:16:58.480Z,32.55
2023-03-04T13:19:46.486Z,32.60
2023-03-04T13:22:30.080Z,32.48
2023-03-04T13:24:58.504Z,32.59
2023-03-04T13:27:44.833Z,32.56
2023-03-04T13:30:28.043Z,32.71
2023-03-04T13:32:57.075Z,32.46
2023-03-04T13:35:44.080Z,32.58
2023-03-04T13:38:22.303Z,32.75
2023-03-04T13:41:04.379Z,32.72
2023-03-04T13:43:40.798Z,32.52
2023-03-04T13:46:27.671Z,32.63
2023-03-04T13:49:05.243Z,32.66
2023-03-04T13:51:33.210Z,32.71
2023-03-04T13:54:09.811Z,32.74
2023-03-04T13:56:37.948Z,32.58
2023-03-04T13:59:14.064Z,32.68
2023-03-04T14:01:50.574Z,32.67
2023-03-04T14:04:21.404Z,32.47
2023-03-04T14:06:50.043Z,32.50
2023-03-04T14:09:21.276Z,32.54
2023-03-04T14:11:49.085Z,32.31
2023-03-04T14:14:17.416Z,32.49
2023-03-04T14:16:48.613Z,32.48
2023-03-04T14:19:17.064Z,32.42
2023-03-04T14:21:49.862Z,32.47
2023-03-04T14:24:18.717Z,32.39
2023-03-04T14:26:47.213Z,32.52
2023-03-04T14:29:22.051Z,32.46
2023-03-04T14:31:50.553Z,32.40
2023-03-04T14:34:20.606Z,32.47
2023-03-04T14:36:50.444Z,32.38
2023-03-04T14:39:18.125Z,32.36
2023-03-04T14:41:45.972Z,32.48
2023-03-04T14:44:16.818Z,32.29
2023-03-04T14:46:56.756Z,32.46
2023-03-04T14:49:33.300Z,32.39
2023-03-04T14:52:02.329Z,32.45
2023-03-04T14:54:31.800Z,32.25
2023-03-04T14:56:59.416Z,32.44
2023-03-04T14:59:34.366Z,32.32
2023-03-04T15:02:21.496Z,32.12
2023-03-04T15:04:51.869Z,32.37
2023-03-04T15:07:23.446Z,32.03
2023-03-04T15:09:52.940Z,32.13
2023-03-04T15:12:24.007Z,32.13
2023-03-04T15:14:52.139Z,32.16
2023-03-04T15:17:25.014Z,32.24
2023-03-04T15:19:59.221Z,31.99
2023-03-04T15:22:29.040Z,31.88
2023-03-04T15:24:56.725Z,32.06
2023-03-04T15:27:25.889Z,32.08
2023-03-04T15:29:56.071Z,32.04
2023-03-04T15:32:24.398Z,31.93
2023-03-04T15:34:52.905Z,32.03
2023-03-04T15:37:21.743Z,32.01
2023-03-04T15:39:51.614Z,31.84
2023-03-04T15:42:19.408Z,31.80
2023-03-04T15:44:48.999Z,31.88
2023-03-04T15:47:16.693Z,32.01
2023-03-04T15:49:47.531Z,31.83
2023-03-04T15:52:17.402Z,31.97
2023-03-04T15:54:45.155Z,31.92
2023-03-04T15:57:18.041Z,31.97
2023-03-04T15:59:45.748Z,31.91
2023-03-04T16:02:13.439Z,32.05
2023-03-04T16:04:42.016Z,31.88
2023-03-04T16:07:10.276Z,32.09
2023-03-04T16:09:38.725Z,32.13
2023-03-04T16:12:06.748Z,31.89
2023-03-04T16:14:36.607Z,32.22
2023-03-04T16:17:04.257Z,32.06
2023-03-04T16:19:32.849Z,32.04
2023-03-04T16:22:00.507Z,32.05
2023-03-04T16:24:28.121Z,32.05
2023-03-04T16:26:57.046Z,32.11
2023-03-04T16:29:24.776Z,31.97
2023-03-04T16:31:54.521Z,31.90
2023-03-04T16:34:22.224Z,32.23
2023-03-04T16:36:50.650Z,32.16
2023-03-04T16:39:19.979Z,32.08
2023-03-04T16:41:48.476Z,32.13
2023-03-04T16:44:16.206Z,32.15
2023-03-04T16:46:44.001Z,32.14
2023-03-04T16:49:13.813Z,32.04
2023-03-04T16:51:43.495Z,32.13
2023-03-04T16:54:14.290Z,32.11
2023-03-04T16:56:42.017Z,32.01
2023-03-04T16:59:11.594Z,32.21
2023-03-04T17:01:39.262Z,32.30
2023-03-04T17:04:07.645Z,32.18
2023-03-04T17:06:39.393Z,32.19
2023-03-04T17:09:07.172Z,32.11
2023-03-04T17:11:35.852Z,32.31
2023-03-04T17:14:03.596Z,32.20
2023-03-04T17:16:31.295Z,32.28
2023-03-04T17:18:59.765Z,32.34
2023-03-04T17:21:27.495Z,32.31
2023-03-04T17:23:57.297Z,32.28
2023-03-04T17:26:25.228Z,32.26
2023-03-04T17:28:52.938Z,32.57
2023-03-04T17:31:21.611Z,32.36
2023-03-04T17:33:49.350Z,32.37
2023-03-04T17:36:18.206Z,32.22
2023-03-04T17:38:45.875Z,32.30
2023-03-04T17:41:18.171Z,32.20
2023-03-04T17:44:05.825Z,32.65
2023-03-04T17:46:34.356Z,32.12
2023-03-04T17:49:02.174Z,32.34
2023-03-04T17:51:30.361Z,32.31
2023-03-04T17:53:58.761Z,32.32
2023-03-04T17:56:30.131Z,32.40
2023-03-04T17:58:58.578Z,32.43
2023-03-04T18:01:26.314Z,32.24
2023-03-04T18:03:54.755Z,32.30
2023-03-04T18:06:25.147Z,32.31
2023-03-04T18:08:53.784Z,32.33
2023-03-04T18:11:21.486Z,32.24
2023-03-04T18:13:51.367Z,32.12
2023-03-04T18:16:23.498Z,32.29
2023-03-04T18:18:53.077Z,32.38
2023-03-04T18:21:20.792Z,32.16
2023-03-04T18:23:49.238Z,32.27
2023-03-04T18:26:18.937Z,32.31
2023-03-04T18:28:49.304Z,32.28
2023-03-04T18:31:20.060Z,32.23
2023-03-04T18:33:48.981Z,32.15
2023-03-04T18:36:16.702Z,32.21
2023-03-04T18:38:46.001Z,32.05
2023-03-04T18:41:14.230Z,32.23
2023-03-04T18:43:42.692Z,32.19
2023-03-04T18:46:10.768Z,32.14
2023-03-04T18:48:41.391Z,31.99
2023-03-04T18:51:09.056Z,32.05
2023-03-04T18:53:36.757Z,32.34
2023-03-04T18:56:07.906Z,32.21
2023-03-04T18:58:36.383Z,32.17
2023-03-04T19:01:05.721Z,32.17
2023-03-04T19:03:34.397Z,32.20
2023-03-04T19:06:05.424Z,32.12
2023-03-04T19:08:33.050Z,32.08
2023-03-04T19:11:01.491Z,32.26
2023-03-04T19:13:30.706Z,32.23
2023-03-04T19:16:02.115Z,32.21
2023-03-04T19:18:29.741Z,32.41
2023-03-04T19:21:03.682Z,32.32
2023-03-04T19:23:34.298Z,32.43
2023-03-04T19:26:02.706Z,31.96
2023-03-04T19:28:30.416Z,32.39
2023-03-04T19:30:59.829Z,32.12
2023-03-04T19:33:27.558Z,32.00
2023-03-04T19:35:56.021Z,32.14
2023-03-04T19:38:23.717Z,32.15
2023-03-04T19:40:54.120Z,31.94
2023-03-04T19:43:21.797Z,32.18
2023-03-04T19:45:54.116Z,32.04
2023-03-04T19:48:22.013Z,32.02
2023-03-04T19:50:52.241Z,32.09
2023-03-04T19:53:19.941Z,32.04
2023-03-04T19:55:49.850Z,32.02
2023-03-04T19:58:18.927Z,31.96
2023-03-04T20:00:47.509Z,31.99
2023-03-04T20:03:15.273Z,32.04
2023-03-04T20:05:45.951Z,31.97
2023-03-04T20:08:14.596Z,32.11
2023-03-04T20:10:42.329Z,32.10
2023-03-04T20:13:14.193Z,31.96
2023-03-04T20:15:44.902Z,32.09
2023-03-04T20:18:13.430Z,32.08
2023-03-04T20:20:41.093Z,32.08
2023-03-04T20:23:10.244Z,32.06
2023-03-04T20:25:37.900Z,32.00
2023-03-04T20:28:07.293Z,31.99
2023-03-04T20:30:34.928Z,31.96
2023-03-04T20:33:04.853Z,32.09
2023-03-04T20:35:32.644Z,32.15
2023-03-04T20:38:00.390Z,31.99
2023-03-04T20:40:28.798Z,31.87
2023-03-04T20:42:56.467Z,31.93
2023-03-04T20:45:25.626Z,32.02
2023-03-04T20:47:53.301Z,31.98
2023-03-04T20:50:23.369Z,31.90
2023-03-04T20:52:51.058Z,31.98
2023-03-04T20:55:19.711Z,32.05
2023-03-04T20:57:49.451Z,32.05
2023-03-04T21:00:17.529Z,31.80
2023-03-04T21:02:46.377Z,31.95
2023-03-04T21:05:14.821Z,32.06
2023-03-04T21:07:46.080Z,31.78
2023-03-04T21:10:13.840Z,31.81
2023-03-04T21:12:43.248Z,31.76
2023-03-04T21:15:11.206Z,32.00
2023-03-04T21:17:38.870Z,31.83
2023-03-04T21:20:07.877Z,31.90
2023-03-04T21:22:35.498Z,31.86
2023-03-04T21:25:05.495Z,31.68
2023-03-04T21:27:33.240Z,31.90
2023-03-04T21:30:02.234Z,31.78
2023-03-04T21:32:29.972Z,31.83
2023-03-04T21:34:58.499Z,31.87
2023-03-04T21:37:26.322Z,31.87
2023-03-04T21:39:56.328Z,31.67
2023-03-04T21:42:25.435Z,31.71
2023-03-04T21:44:53.871Z,31.79
2023-03-04T21:47:22.409Z,31.75
2023-03-04T21:49:51.315Z,31.79
2023-03-04T21:52:19.024Z,31.69
2023-03-04T21:54:48.540Z,31.72
2023-03-04T21:57:16.201Z,31.59
2023-03-04T21:59:47.363Z,31.62
2023-03-04T22:02:15.538Z,31.70
2023-03-04T22:04:43.910Z,31.77
2023-03-04T22:07:12.713Z,31.75
2023-03-04T22:09:40.375Z,31.69
2023-03-04T22:12:12.198Z,31.55
2023-03-04T22:14:40.688Z,31.70
2023-03-04T22:17:10.614Z,31.57
2023-03-04T22:19:38.350Z,31.64
2023-03-04T22:22:07.141Z,31.62
2023-03-04T22:24:34.852Z,31.55
2023-03-04T22:27:03.333Z,31.93
2023-03-04T22:29:30.999Z,31.79
2023-03-04T22:31:59.441Z,31.56
2023-03-04T22:34:28.633Z,31.72
2023-03-04T22:36:57.108Z,31.86
2023-03-04T22:39:24.770Z,31.63
2023-03-04T22:41:52.433Z,31.79
2023-03-04T22:44:20.874Z,31.61
2023-03-04T22:46:48.837Z,31.77
2023-03-04T22:49:17.140Z,31.52
2023-03-04T22:51:46.238Z,31.79
2023-03-04T22:54:14.757Z,31.45
2023-03-04T22:56:42.378Z,31.58
2023-03-04T22:59:10.783Z,31.64
2023-03-04T23:01:38.528Z,31.42
2023-03-04T23:04:06.762Z,31.65
2023-03-04T23:06:35.038Z,31.61
2023-03-04T23:09:04.832Z,31.62
2023-03-04T23:11:32.872Z,31.62
2023-03-04T23:14:02.173Z,31.56
2023-03-04T23:16:32.377Z,31.51
2023-03-04T23:19:00.068Z,31.55
2023-03-04T23:21:28.830Z,31.52
2023-03-04T23:23:56.481Z,31.33
2023-03-04T23:26:26.738Z,31.42
2023-03-04T23:28:55.786Z,31.35
2023-03-04T23:31:24.238Z,31.38
2023-03-04T23:33:52.047Z,31.45
2023-03-04T23:36:20.035Z,31.30
2023-03-04T23:38:48.106Z,31.39
2023-03-04T23:41:16.019Z,31.52
2023-03-04T23:43:45.729Z,31.66
2023-03-04T23:46:13.446Z,31.46
2023-03-04T23:48:43.242Z,31.43
2023-03-04T23:51:11.251Z,31.54
2023-03-04T23:53:39.327Z,31.53
2023-03-04T23:56:08.570Z,31.46
2023-03-04T23:58:36.265Z,31.56
